Time;durP1;ratioP1;P1;durP2;ratioP2;P2;SDS_P1;SDS_P2;PMS_P1;PMS_P2;Temp;Humidity;BMP_temperature;BMP_pressure;BME280_temperature;BME280_humidity;BME280_pressure;Samples;Min_cycle;Max_cycle;Signal;HPM_P1;HPM_P2
2023/12/02 00:01:15;;;;;;;;;;;-1.20;74.10;;;;;;4605750;30;114257;-80
2023/12/02 00:03:42;;;;;;;;;;;-1.20;74.10;;;;;;4621364;30;114294;-80
2023/12/02 00:06:10;;;;;;;;;;;-1.20;74.30;;;;;;4620409;30;116797;-79
2023/12/02 00:08:37;;;;;;;;;;;-1.20;74.10;;;;;;4620853;30;114473;-80
2023/12/02 00:11:04;;;;;;;;;;;-1.30;74.20;;;;;;4606143;30;114194;-80
2023/12/02 00:13:31;;;;;;;;;;;-1.30;74.20;;;;;;4605690;30;114334;-80
2023/12/02 00:15:58;;;;;;;;;;;-1.40;74.40;;;;;;4604570;30;115215;-80
2023/12/02 00:18:25;;;;;;;;;;;-1.40;74.50;;;;;;4620583;30;114683;-80
2023/12/02 00:20:54;;;;;;;;;;;-1.30;74.50;;;;;;4605649;30;114306;-81
2023/12/02 00:23:21;;;;;;;;;;;-1.30;74.40;;;;;;4621154;30;114220;-80
2023/12/02 00:25:49;;;;;;;;;;;-1.30;74.40;;;;;;4619640;30;115177;-80
2023/12/02 00:28:16;;;;;;;;;;;-1.30;74.40;;;;;;4605009;30;114535;-80
2023/12/02 00:30:43;;;;;;;;;;;-1.30;74.60;;;;;;4605515;30;114561;-79
2023/12/02 00:33:10;;;;;;;;;;;-1.30;74.40;;;;;;4620973;30;114204;-80
2023/12/02 00:35:37;;;;;;;;;;;-1.30;74.40;;;;;;4620107;30;115266;-80
2023/12/02 00:38:04;;;;;;;;;;;-1.30;74.40;;;;;;4619859;30;115837;-80
2023/12/02 00:40:31;;;;;;;;;;;-1.30;74.40;;;;;;4605889;30;114235;-78
2023/12/02 00:42:58;;;;;;;;;;;-1.30;74.40;;;;;;4605378;30;114520;-79
2023/12/02 00:45:25;;;;;;;;;;;-1.30;74.30;;;;;;4620140;30;114892;-80
2023/12/02 00:47:52;;;;;;;;;;;-1.30;74.40;;;;;;4620383;30;114961;-79
2023/12/02 00:50:19;;;;;;;;;;;-1.30;74.40;;;;;;4620835;30;114577;-80
2023/12/02 00:52:49;;;;;;;;;;;-1.20;74.40;;;;;;4623388;30;114239;-81
2023/12/02 00:55:16;;;;;;;;;;;-1.30;74.30;;;;;;4629816;30;114137;-80
2023/12/02 00:57:43;;;;;;;;;;;-1.20;74.30;;;;;;4623105;30;114676;-80
2023/12/02 01:00:10;;;;;;;;;;;-1.30;74.20;;;;;;4620742;30;114322;-79
2023/12/02 01:02:37;;;;;;;;;;;-1.30;74.20;;;;;;4620945;30;114299;-79
2023/12/02 01:05:04;;;;;;;;;;;-1.40;74.20;;;;;;4604624;30;114863;-79
2023/12/02 01:07:31;;;;;;;;;;;-1.40;74.20;;;;;;4590941;30;117686;-80
2023/12/02 01:09:58;;;;;;;;;;;-1.30;74.40;;;;;;4605883;30;114602;-80
2023/12/02 01:12:26;;;;;;;;;;;-1.30;74.30;;;;;;4620934;30;114359;-80
2023/12/02 01:14:53;;;;;;;;;;;-1.30;74.10;;;;;;4604429;30;115032;-79
2023/12/02 01:17:20;;;;;;;;;;;-1.30;74.10;;;;;;4624091;30;114631;-81
2023/12/02 01:19:47;;;;;;;;;;;-1.30;74.00;;;;;;4643255;30;113309;-81
2023/12/02 01:22:14;;;;;;;;;;;-1.30;74.10;;;;;;4626218;30;114355;-80
2023/12/02 01:24:41;;;;;;;;;;;-1.40;74.10;;;;;;4606102;30;115100;-80
2023/12/02 01:27:08;;;;;;;;;;;-1.40;74.10;;;;;;4605006;30;114771;-81
2023/12/02 01:29:35;;;;;;;;;;;-1.40;74.10;;;;;;4620379;30;114221;-79
2023/12/02 01:32:02;;;;;;;;;;;-1.40;74.10;;;;;;4620820;30;114587;-80
2023/12/02 01:34:30;;;;;;;;;;;-1.40;74.10;;;;;;4604205;30;115017;-79
2023/12/02 01:36:57;;;;;;;;;;;-1.50;74.20;;;;;;4604107;30;117919;-79
2023/12/02 01:39:27;;;;;;;;;;;-1.50;74.20;;;;;;4620499;30;114612;-80
2023/12/02 01:41:55;;;;;;;;;;;-1.50;74.40;;;;;;4619705;30;114332;-80
2023/12/02 01:44:25;;;;;;;;;;;-1.50;74.30;;;;;;4603701;30;115045;-80
2023/12/02 01:46:52;;;;;;;;;;;-1.60;74.30;;;;;;4618950;30;115887;-79
2023/12/02 01:49:19;;;;;;;;;;;-1.60;74.30;;;;;;4619669;30;114494;-81
2023/12/02 01:51:46;;;;;;;;;;;-1.60;74.40;;;;;;4619971;30;114264;-80
2023/12/02 01:54:13;;;;;;;;;;;-1.60;74.40;;;;;;4619051;30;115516;-80
2023/12/02 01:56:40;;;;;;;;;;;-1.60;74.40;;;;;;4619050;30;115876;-79
2023/12/02 01:59:23;;;;;;;;;;;-1.60;74.40;;;;;;4604122;30;114417;-78
2023/12/02 02:01:51;;;;;;;;;;;-1.50;74.30;;;;;;4603629;30;114392;-79
2023/12/02 02:04:18;;;;;;;;;;;-1.60;74.30;;;;;;4603395;30;115517;-80
2023/12/02 02:06:45;;;;;;;;;;;-1.60;74.40;;;;;;4619295;30;115007;-81
2023/12/02 02:09:12;;;;;;;;;;;-1.60;74.30;;;;;;4620002;30;114167;-81
2023/12/02 02:11:39;;;;;;;;;;;-1.60;74.30;;;;;;4618949;30;114330;-81
2023/12/02 02:14:06;;;;;;;;;;;-1.60;74.30;;;;;;4618604;30;114886;-79
2023/12/02 02:16:33;;;;;;;;;;;-1.70;74.40;;;;;;4618774;30;115878;-79
2023/12/02 02:19:00;;;;;;;;;;;-1.70;74.40;;;;;;4604496;30;114273;-80
2023/12/02 02:21:28;;;;;;;;;;;-1.70;74.40;;;;;;4620101;30;114393;-79
2023/12/02 02:23:55;;;;;;;;;;;-1.70;74.50;;;;;;4618522;30;114977;-79
2023/12/02 02:26:22;;;;;;;;;;;-1.70;74.50;;;;;;4618476;30;114555;-81
2023/12/02 02:28:49;;;;;;;;;;;-1.70;74.40;;;;;;4603603;30;114405;-79
2023/12/02 02:31:17;;;;;;;;;;;-1.70;74.50;;;;;;4619571;30;114344;-80
2023/12/02 02:33:44;;;;;;;;;;;-1.70;74.60;;;;;;4618542;30;114903;-81
2023/12/02 02:36:11;;;;;;;;;;;-1.60;74.60;;;;;;4611065;30;114552;-81
2023/12/02 02:38:38;;;;;;;;;;;-1.60;74.60;;;;;;4622653;30;114227;-80
2023/12/02 02:41:05;;;;;;;;;;;-1.60;74.50;;;;;;4604363;30;114508;-80
2023/12/02 02:43:32;;;;;;;;;;;-1.70;74.50;;;;;;4602997;30;116880;-81
2023/12/02 02:45:59;;;;;;;;;;;-1.60;74.50;;;;;;4608360;30;114616;-80
2023/12/02 02:48:26;;;;;;;;;;;-1.60;74.70;;;;;;4602475;30;114463;-81
2023/12/02 02:50:54;;;;;;;;;;;-1.70;74.50;;;;;;4602055;30;114366;-81
2023/12/02 02:53:21;;;;;;;;;;;-1.60;74.50;;;;;;4601168;30;114881;-81
2023/12/02 02:55:48;;;;;;;;;;;-1.60;74.50;;;;;;4586163;30;115098;-79
2023/12/02 02:58:15;;;;;;;;;;;-1.50;74.50;;;;;;4601315;30;114494;-81
2023/12/02 03:00:42;;;;;;;;;;;-1.60;74.40;;;;;;4602267;30;114341;-81
2023/12/02 03:03:09;;;;;;;;;;;-1.60;74.40;;;;;;4601259;30;115138;-79
2023/12/02 03:05:36;;;;;;;;;;;-1.60;74.50;;;;;;4601868;30;115228;-79
2023/12/02 03:08:03;;;;;;;;;;;-1.60;74.40;;;;;;4615097;30;114331;-81
2023/12/02 03:10:33;;;;;;;;;;;-1.60;74.50;;;;;;4615229;30;114206;-81
2023/12/02 03:13:02;;;;;;;;;;;-1.60;74.50;;;;;;4614436;30;114965;-80
2023/12/02 03:15:29;;;;;;;;;;;-1.60;74.50;;;;;;4601192;30;114628;-80
2023/12/02 03:17:56;;;;;;;;;;;-1.70;74.50;;;;;;4600073;30;114141;-80
2023/12/02 03:20:23;;;;;;;;;;;-1.70;74.60;;;;;;4602000;30;114280;-82
2023/12/02 03:22:50;;;;;;;;;;;-1.60;74.50;;;;;;4585761;30;116014;-80
2023/12/02 03:25:17;;;;;;;;;;;-1.70;74.50;;;;;;4604303;30;114758;-81
2023/12/02 03:27:44;;;;;;;;;;;-1.70;74.60;;;;;;4589889;30;114575;-79
2023/12/02 03:30:12;;;;;;;;;;;-1.70;74.60;;;;;;4617619;30;114304;-80
2023/12/02 03:32:39;;;;;;;;;;;-1.70;74.60;;;;;;4616946;30;115099;-80
2023/12/02 03:35:07;;;;;;;;;;;-1.70;74.60;;;;;;4589289;30;117088;-80
2023/12/02 03:37:37;;;;;;;;;;;-1.70;74.50;;;;;;4617674;30;114506;-80
2023/12/02 03:40:05;;;;;;;;;;;-1.70;74.50;;;;;;4603337;30;114258;-80
2023/12/02 03:42:32;;;;;;;;;;;-1.70;74.50;;;;;;4615696;30;116055;-79
2023/12/02 03:45:00;;;;;;;;;;;-1.70;74.50;;;;;;4603530;30;114597;-78
2023/12/02 03:47:28;;;;;;;;;;;-1.70;74.50;;;;;;4604472;30;114613;-79
2023/12/02 03:49:55;;;;;;;;;;;-1.70;74.50;;;;;;4604477;30;114644;-79
2023/12/02 03:52:22;;;;;;;;;;;-1.80;74.50;;;;;;4603635;30;115261;-80
2023/12/02 03:54:49;;;;;;;;;;;-1.80;74.60;;;;;;4588382;30;115250;-80
2023/12/02 03:57:16;;;;;;;;;;;-1.80;74.80;;;;;;4589220;30;114484;-81
2023/12/02 03:59:43;;;;;;;;;;;-1.80;74.70;;;;;;4604127;30;114366;-81
2023/12/02 04:02:10;;;;;;;;;;;-1.80;74.70;;;;;;4603103;30;116257;-80
2023/12/02 04:04:37;;;;;;;;;;;-1.80;74.70;;;;;;4588587;30;115943;-80
2023/12/02 04:07:04;;;;;;;;;;;-1.80;74.80;;;;;;4603800;30;114456;-79
2023/12/02 04:09:32;;;;;;;;;;;-1.70;74.80;;;;;;4603876;30;114390;-80
2023/12/02 04:11:59;;;;;;;;;;;-1.70;74.70;;;;;;4603548;30;114977;-81
2023/12/02 04:14:26;;;;;;;;;;;-1.70;74.60;;;;;;4603389;30;115203;-81
2023/12/02 04:16:53;;;;;;;;;;;-1.80;74.50;;;;;;4607824;30;114441;-79
2023/12/02 04:19:21;;;;;;;;;;;-1.80;74.50;;;;;;4619190;30;114443;-79
2023/12/02 04:21:48;;;;;;;;;;;-1.90;74.60;;;;;;4588130;30;114879;-80
2023/12/02 04:24:15;;;;;;;;;;;-1.90;74.60;;;;;;4603895;30;114772;-81
2023/12/02 04:26:42;;;;;;;;;;;-1.90;74.70;;;;;;4603925;30;114605;-80
2023/12/02 04:29:09;;;;;;;;;;;-2.00;74.80;;;;;;4604141;30;114323;-80
2023/12/02 04:31:36;;;;;;;;;;;-2.00;74.90;;;;;;4603468;30;114648;-80
2023/12/02 04:34:04;;;;;;;;;;;-2.00;75.00;;;;;;4603528;30;114652;-78
2023/12/02 04:36:31;;;;;;;;;;;-1.90;74.90;;;;;;4587911;30;114334;-81
2023/12/02 04:38:58;;;;;;;;;;;-2.00;74.90;;;;;;4588885;30;114329;-80
2023/12/02 04:41:25;;;;;;;;;;;-2.00;74.90;;;;;;4586768;30;115959;-80
2023/12/02 04:43:52;;;;;;;;;;;-1.90;75.00;;;;;;4587839;30;117609;-80
2023/12/02 04:46:19;;;;;;;;;;;-1.90;74.90;;;;;;4604070;30;114066;-80
2023/12/02 04:48:47;;;;;;;;;;;-1.90;75.00;;;;;;4617201;30;114585;-81
2023/12/02 04:51:15;;;;;;;;;;;-1.90;74.80;;;;;;4603164;30;114997;-80
2023/12/02 04:53:42;;;;;;;;;;;-1.90;74.90;;;;;;4603413;30;114647;-80
2023/12/02 04:56:09;;;;;;;;;;;-1.90;74.90;;;;;;4594919;30;114474;-80
2023/12/02 04:58:36;;;;;;;;;;;-1.90;74.80;;;;;;4623490;30;114062;-80
2023/12/02 05:01:05;;;;;;;;;;;-1.90;74.90;;;;;;4588350;30;114877;-80
2023/12/02 05:03:32;;;;;;;;;;;-1.90;74.80;;;;;;4587081;30;117022;-80
2023/12/02 05:05:59;;;;;;;;;;;-2.00;74.90;;;;;;4603393;30;114375;-81
2023/12/02 05:08:27;;;;;;;;;;;-2.00;74.90;;;;;;4588616;30;114595;-80
2023/12/02 05:10:54;;;;;;;;;;;-2.00;74.80;;;;;;4602605;30;114974;-81
2023/12/02 05:13:22;;;;;;;;;;;-2.00;74.80;;;;;;4587897;30;114613;-80
2023/12/02 05:15:49;;;;;;;;;;;-2.00;74.90;;;;;;4617060;30;114205;-81
2023/12/02 05:18:16;;;;;;;;;;;-2.00;74.80;;;;;;4603871;30;114396;-81
2023/12/02 05:20:43;;;;;;;;;;;-2.00;74.90;;;;;;4587243;30;114991;-80
2023/12/02 05:23:11;;;;;;;;;;;-2.00;74.80;;;;;;4603043;30;115135;-82
2023/12/02 05:25:38;;;;;;;;;;;-2.00;74.90;;;;;;4603733;30;114345;-80
2023/12/02 05:28:05;;;;;;;;;;;-2.00;74.90;;;;;;4588020;30;114344;-81
2023/12/02 05:30:33;;;;;;;;;;;-2.00;74.90;;;;;;4602679;30;115071;-80
2023/12/02 05:33:01;;;;;;;;;;;-1.90;74.80;;;;;;4602111;30;116627;-79
2023/12/02 05:35:28;;;;;;;;;;;-1.90;74.80;;;;;;4603022;30;114397;-80
2023/12/02 05:37:56;;;;;;;;;;;-1.90;74.70;;;;;;4574434;30;114313;-81
2023/12/02 05:40:23;;;;;;;;;;;-1.90;74.70;;;;;;4615351;30;114960;-79
2023/12/02 05:42:50;;;;;;;;;;;-2.00;74.70;;;;;;4601504;30;114833;-80
2023/12/02 05:45:17;;;;;;;;;;;-2.00;74.80;;;;;;4602678;30;114075;-80
2023/12/02 05:47:44;;;;;;;;;;;-2.00;74.60;;;;;;4587639;30;114372;-80
2023/12/02 05:50:11;;;;;;;;;;;-2.00;74.60;;;;;;4586651;30;116231;-79
2023/12/02 05:52:38;;;;;;;;;;;-2.00;74.60;;;;;;4602174;30;115026;-80
2023/12/02 05:55:05;;;;;;;;;;;-2.00;74.60;;;;;;4603169;30;114340;-79
2023/12/02 05:57:36;;;;;;;;;;;-2.00;74.60;;;;;;4607350;30;114271;-79
2023/12/02 06:00:04;;;;;;;;;;;-2.00;74.50;;;;;;4604781;30;114195;-79
2023/12/02 06:02:31;;;;;;;;;;;-2.00;74.60;;;;;;4602274;30;116684;-79
2023/12/02 06:04:58;;;;;;;;;;;-2.00;74.80;;;;;;4603095;30;114550;-80
2023/12/02 06:07:25;;;;;;;;;;;-2.00;74.70;;;;;;4587437;30;114344;-78
2023/12/02 06:09:52;;;;;;;;;;;-2.10;74.70;;;;;;4586194;30;115107;-79
2023/12/02 06:12:19;;;;;;;;;;;-2.10;74.80;;;;;;4586824;30;116246;-79
2023/12/02 06:14:46;;;;;;;;;;;-2.10;74.80;;;;;;4602947;30;114481;-80
2023/12/02 06:17:14;;;;;;;;;;;-2.00;74.70;;;;;;4587529;30;114305;-79
2023/12/02 06:19:41;;;;;;;;;;;-2.10;74.70;;;;;;4602204;30;114957;-79
2023/12/02 06:22:08;;;;;;;;;;;-2.00;74.60;;;;;;4586389;30;115796;-81
2023/12/02 06:24:35;;;;;;;;;;;-2.00;74.60;;;;;;4615514;30;114252;-79
2023/12/02 06:27:02;;;;;;;;;;;-2.00;74.70;;;;;;4603122;30;114280;-79
2023/12/02 06:29:29;;;;;;;;;;;-2.10;74.60;;;;;;4601429;30;116084;-80
2023/12/02 06:31:56;;;;;;;;;;;-2.20;74.60;;;;;;4602277;30;114604;-80
2023/12/02 06:34:25;;;;;;;;;;;-2.20;74.80;;;;;;4601876;30;114271;-78
2023/12/02 06:36:57;;;;;;;;;;;-2.20;74.90;;;;;;4602441;30;114165;-79
2023/12/02 06:39:24;;;;;;;;;;;-2.20;74.90;;;;;;4601477;30;115082;-80
2023/12/02 06:41:51;;;;;;;;;;;-2.20;74.90;;;;;;4614049;30;114819;-81
2023/12/02 06:44:18;;;;;;;;;;;-2.20;74.90;;;;;;4602050;30;114405;-81
2023/12/02 06:46:46;;;;;;;;;;;-2.20;74.90;;;;;;4602117;30;114494;-80
2023/12/02 06:49:13;;;;;;;;;;;-2.20;75.00;;;;;;4611553;30;114849;-79
2023/12/02 06:51:40;;;;;;;;;;;-2.30;75.00;;;;;;4618860;30;115151;-81
2023/12/02 06:54:08;;;;;;;;;;;-2.30;75.10;;;;;;4606178;30;114297;-79
2023/12/02 06:56:35;;;;;;;;;;;-2.30;75.20;;;;;;4588488;30;114205;-80
2023/12/02 06:59:03;;;;;;;;;;;-2.30;75.30;;;;;;4602986;30;114862;-80
2023/12/02 07:01:30;;;;;;;;;;;-2.40;75.30;;;;;;4604908;30;114572;-81
2023/12/02 07:03:58;;;;;;;;;;;-2.40;75.40;;;;;;4590098;30;114542;-80
2023/12/02 07:06:25;;;;;;;;;;;-2.40;75.50;;;;;;4605281;30;114397;-79
2023/12/02 07:08:52;;;;;;;;;;;-2.40;75.50;;;;;;4604472;30;115626;-80
2023/12/02 07:11:20;;;;;;;;;;;-2.40;75.50;;;;;;4604342;30;115183;-81
2023/12/02 07:13:50;;;;;;;;;;;-2.40;75.60;;;;;;4618557;30;114534;-79
2023/12/02 07:16:18;;;;;;;;;;;-2.40;75.70;;;;;;4618530;30;114492;-78
2023/12/02 07:18:45;;;;;;;;;;;-2.40;75.70;;;;;;4604894;30;114977;-78
2023/12/02 07:21:12;;;;;;;;;;;-2.30;75.90;;;;;;4617623;30;114771;-79
2023/12/02 07:23:39;;;;;;;;;;;-2.40;75.80;;;;;;4589786;30;114273;-80
2023/12/02 07:26:07;;;;;;;;;;;-2.30;76.00;;;;;;4618195;30;114473;-80
2023/12/02 07:28:34;;;;;;;;;;;-2.30;76.10;;;;;;4604326;30;115124;-81
2023/12/02 07:31:01;;;;;;;;;;;-2.40;76.00;;;;;;4589293;30;115860;-81
2023/12/02 07:33:28;;;;;;;;;;;-2.40;76.10;;;;;;4605601;30;114547;-81
2023/12/02 07:35:55;;;;;;;;;;;-2.40;76.10;;;;;;4589552;30;114222;-80
2023/12/02 07:38:22;;;;;;;;;;;-2.30;76.10;;;;;;4590759;30;116212;-80
2023/12/02 07:40:49;;;;;;;;;;;-2.30;76.30;;;;;;4589275;30;117016;-79
2023/12/02 07:43:16;;;;;;;;;;;-2.30;76.20;;;;;;4603458;30;114287;-81
2023/12/02 07:45:43;;;;;;;;;;;-2.30;76.30;;;;;;4603698;30;114314;-80
2023/12/02 07:48:10;;;;;;;;;;;-2.30;76.30;;;;;;4616570;30;115205;-78
2023/12/02 07:50:38;;;;;;;;;;;-2.30;76.30;;;;;;4602554;30;114899;-80
2023/12/02 07:53:05;;;;;;;;;;;-2.20;76.40;;;;;;4603451;30;114423;-79
2023/12/02 07:55:32;;;;;;;;;;;-2.20;76.30;;;;;;4602957;30;114523;-79
2023/12/02 07:58:01;;;;;;;;;;;-2.20;76.30;;;;;;4574411;30;118218;-81
2023/12/02 08:00:28;;;;;;;;;;;-2.10;76.10;;;;;;4616191;30;115250;-79
2023/12/02 08:02:55;;;;;;;;;;;-2.10;76.00;;;;;;4604347;30;114338;-81
2023/12/02 08:05:22;;;;;;;;;;;-2.10;75.90;;;;;;4604571;30;114560;-81
2023/12/02 08:07:52;;;;;;;;;;;-2.00;75.90;;;;;;4615788;30;116488;-80
2023/12/02 08:10:19;;;;;;;;;;;-2.10;75.70;;;;;;4573039;30;118167;-80
2023/12/02 08:12:49;;;;;;;;;;;-2.10;75.60;;;;;;4574587;30;114390;-80
2023/12/02 08:15:16;;;;;;;;;;;-2.10;75.50;;;;;;4604505;30;114300;-80
2023/12/02 08:17:43;;;;;;;;;;;-2.20;75.50;;;;;;4603728;30;114903;-80
2023/12/02 08:20:10;;;;;;;;;;;-2.10;75.50;;;;;;4588421;30;118256;-82
2023/12/02 08:22:37;;;;;;;;;;;-2.20;75.50;;;;;;4604658;30;115308;-80
2023/12/02 08:25:05;;;;;;;;;;;-2.20;75.50;;;;;;4604291;30;114538;-81
2023/12/02 08:27:32;;;;;;;;;;;-2.20;75.50;;;;;;4616270;30;115258;-81
2023/12/02 08:30:00;;;;;;;;;;;-2.20;75.70;;;;;;4603724;30;114674;-80
2023/12/02 08:32:27;;;;;;;;;;;-2.30;75.60;;;;;;4604268;30;114665;-81
2023/12/02 08:34:54;;;;;;;;;;;-2.30;75.60;;;;;;4604343;30;114071;-81
2023/12/02 08:37:22;;;;;;;;;;;-2.30;75.50;;;;;;4602956;30;115237;-79
2023/12/02 08:39:54;;;;;;;;;;;-2.30;75.60;;;;;;4603187;30;114657;-80
2023/12/02 08:42:25;;;;;;;;;;;-2.30;75.60;;;;;;4617071;30;114451;-79
2023/12/02 08:44:52;;;;;;;;;;;-2.30;75.60;;;;;;4622874;30;114222;-80
2023/12/02 08:47:19;;;;;;;;;;;-2.20;75.80;;;;;;4623071;30;114122;-81
2023/12/02 08:49:47;;;;;;;;;;;-2.10;75.70;;;;;;4605829;30;114578;-80
2023/12/02 08:52:14;;;;;;;;;;;-2.10;75.70;;;;;;4604342;30;114547;-80
2023/12/02 08:54:41;;;;;;;;;;;-2.00;75.60;;;;;;4604815;30;114184;-78
2023/12/02 08:57:08;;;;;;;;;;;-2.00;75.60;;;;;;4603364;30;115019;-78
2023/12/02 08:59:35;;;;;;;;;;;-2.00;75.50;;;;;;4602935;30;116581;-80
2023/12/02 09:02:05;;;;;;;;;;;-1.90;75.50;;;;;;4602835;30;114505;-81
2023/12/02 09:04:32;;;;;;;;;;;-2.00;75.50;;;;;;4604026;30;114165;-80
2023/12/02 09:06:59;;;;;;;;;;;-1.90;75.60;;;;;;4603069;30;114938;-80
2023/12/02 09:09:27;;;;;;;;;;;-1.90;75.40;;;;;;4602898;30;115034;-79
2023/12/02 09:11:54;;;;;;;;;;;-1.90;75.40;;;;;;4602438;30;114514;-81
2023/12/02 09:14:21;;;;;;;;;;;-1.90;75.50;;;;;;4603716;30;114051;-80
2023/12/02 09:16:50;;;;;;;;;;;-1.90;75.40;;;;;;4602702;30;116212;-79
2023/12/02 09:19:23;;;;;;;;;;;-2.00;75.50;;;;;;4616897;30;115200;-80
2023/12/02 09:21:50;;;;;;;;;;;-2.00;75.50;;;;;;4589181;30;114307;-81
2023/12/02 09:24:37;;;;;;;;;;;-2.00;75.50;;;;;;4602631;30;114465;-80
2023/12/02 09:27:08;;;;;;;;;;;-1.90;75.60;;;;;;4601886;30;116153;-80
2023/12/02 09:29:36;;;;;;;;;;;-1.90;75.70;;;;;;4602810;30;114684;-79
2023/12/02 09:32:25;;;;;;;;;;;-1.90;75.50;;;;;;4574273;30;114578;-79
2023/12/02 09:34:59;;;;;;;;;;;-1.90;75.60;;;;;;4601903;30;114402;-80
2023/12/02 09:37:46;;;;;;;;;;;-1.70;75.60;;;;;;4587511;30;115021;-80
2023/12/02 09:40:23;;;;;;;;;;;-1.80;75.30;;;;;;4602557;30;114599;-80
2023/12/02 09:42:54;;;;;;;;;;;-1.80;75.00;;;;;;4587280;30;114429;-80
2023/12/02 09:45:21;;;;;;;;;;;-1.80;75.20;;;;;;4603970;30;114156;-80
2023/12/02 09:47:54;;;;;;;;;;;-1.90;75.10;;;;;;4602442;30;114870;-80
2023/12/02 09:50:21;;;;;;;;;;;-1.80;75.30;;;;;;4600871;30;116703;-80
2023/12/02 09:52:51;;;;;;;;;;;-1.80;75.40;;;;;;4614816;30;114259;-81
2023/12/02 09:55:26;;;;;;;;;;;-1.60;75.30;;;;;;4602983;30;114309;-80
2023/12/02 09:58:00;;;;;;;;;;;-1.60;75.10;;;;;;4601798;30;116088;-79
2023/12/02 10:00:35;;;;;;;;;;;-1.60;74.90;;;;;;4602109;30;114859;-80
2023/12/02 10:03:27;;;;;;;;;;;-1.60;75.00;;;;;;4603260;30;114744;-81
2023/12/02 10:06:15;;;;;;;;;;;-1.60;74.80;;;;;;4615477;30;114613;-80
2023/12/02 10:08:51;;;;;;;;;;;-1.60;74.80;;;;;;4601912;30;115110;-80
2023/12/02 10:11:35;;;;;;;;;;;-1.70;74.60;;;;;;4602180;30;114993;-78
2023/12/02 10:14:07;;;;;;;;;;;-1.80;74.70;;;;;;4615561;30;114697;-80
2023/12/02 10:16:34;;;;;;;;;;;-1.80;74.50;;;;;;4587450;30;114339;-80
2023/12/02 10:19:02;;;;;;;;;;;-1.90;74.70;;;;;;4600283;30;115554;-81
2023/12/02 10:21:29;;;;;;;;;;;-1.80;74.60;;;;;;4600611;30;114634;-80
2023/12/02 10:24:05;;;;;;;;;;;-1.90;74.70;;;;;;4602570;30;114541;-80
2023/12/02 10:26:41;;;;;;;;;;;-1.90;74.90;;;;;;4615683;30;114164;-80
2023/12/02 10:29:09;;;;;;;;;;;-1.80;74.90;;;;;;4601807;30;115060;-79
2023/12/02 10:31:36;;;;;;;;;;;-1.70;74.70;;;;;;4600523;30;114745;-79
2023/12/02 10:34:09;;;;;;;;;;;-1.70;74.50;;;;;;4614866;30;114199;-80
2023/12/02 10:36:36;;;;;;;;;;;-1.70;74.60;;;;;;4603178;30;114295;-80
2023/12/02 10:39:09;;;;;;;;;;;-1.60;74.60;;;;;;4601797;30;116106;-80
2023/12/02 10:42:02;;;;;;;;;;;-1.70;74.50;;;;;;4614975;30;114563;-81
2023/12/02 10:44:30;;;;;;;;;;;-1.50;74.60;;;;;;4612954;30;114041;-80
2023/12/02 10:46:58;;;;;;;;;;;-1.50;74.50;;;;;;4603452;30;114115;-80
2023/12/02 10:49:25;;;;;;;;;;;-1.60;74.40;;;;;;4601841;30;116336;-80
2023/12/02 10:51:53;;;;;;;;;;;-1.60;74.40;;;;;;4614507;30;115020;-80
2023/12/02 10:54:25;;;;;;;;;;;-1.70;74.20;;;;;;4600754;30;115322;-80
2023/12/02 10:56:56;;;;;;;;;;;-1.80;74.30;;;;;;4602384;30;114197;-80
2023/12/02 10:59:23;;;;;;;;;;;-1.80;74.30;;;;;;4614237;30;114917;-80
2023/12/02 11:01:53;;;;;;;;;;;-1.90;74.30;;;;;;4614992;30;115155;-80
2023/12/02 11:04:23;;;;;;;;;;;-2.00;74.40;;;;;;4603365;30;114359;-79
2023/12/02 11:06:53;;;;;;;;;;;-1.90;74.60;;;;;;4615356;30;114291;-81
2023/12/02 11:09:43;;;;;;;;;;;-2.00;74.40;;;;;;4600729;30;115070;-80
2023/12/02 11:12:11;;;;;;;;;;;-2.00;74.40;;;;;;4602029;30;116614;-80
2023/12/02 11:14:40;;;;;;;;;;;-2.00;74.30;;;;;;4601948;30;114563;-81
2023/12/02 11:17:23;;;;;;;;;;;-2.00;74.50;;;;;;4614746;30;114320;-80
2023/12/02 11:19:54;;;;;;;;;;;-2.00;74.30;;;;;;4586211;30;115779;-80
2023/12/02 11:22:27;;;;;;;;;;;-2.10;74.20;;;;;;4601113;30;114821;-80
2023/12/02 11:25:12;;;;;;;;;;;-2.20;74.30;;;;;;4601950;30;114314;-80
2023/12/02 11:27:39;;;;;;;;;;;-2.10;74.40;;;;;;4602057;30;114439;-81
2023/12/02 11:30:22;;;;;;;;;;;-2.10;74.40;;;;;;4585480;30;118937;-80
2023/12/02 11:32:49;;;;;;;;;;;-2.20;74.60;;;;;;4585629;30;114802;-80
2023/12/02 11:35:36;;;;;;;;;;;-2.10;74.50;;;;;;4585838;30;114181;-80
2023/12/02 11:38:03;;;;;;;;;;;-2.10;74.60;;;;;;4608137;30;114453;-81
2023/12/02 11:40:48;;;;;;;;;;;-2.10;74.50;;;;;;4585756;30;116191;-80
2023/12/02 11:43:41;;;;;;;;;;;-2.00;74.60;;;;;;4600821;30;114682;-81
2023/12/02 11:46:13;;;;;;;;;;;-2.00;74.60;;;;;;4604522;30;114554;-80
2023/12/02 11:49:00;;;;;;;;;;;-1.90;74.60;;;;;;4617545;30;114612;-80
2023/12/02 11:51:46;;;;;;;;;;;-1.90;74.50;;;;;;4590648;30;114937;-80
2023/12/02 11:54:42;;;;;;;;;;;-1.90;74.40;;;;;;4603858;30;114723;-80
2023/12/02 11:57:15;;;;;;;;;;;-2.00;74.40;;;;;;4607363;30;114405;-81
2023/12/02 12:00:06;;;;;;;;;;;-1.90;74.50;;;;;;4617016;30;114468;-80
2023/12/02 12:02:40;;;;;;;;;;;-1.90;74.60;;;;;;4602758;30;115136;-79
2023/12/02 12:05:21;;;;;;;;;;;-1.80;74.30;;;;;;4615899;30;115230;-80
2023/12/02 12:08:07;;;;;;;;;;;-1.80;74.00;;;;;;4603772;30;114349;-79
2023/12/02 12:10:36;;;;;;;;;;;-1.90;73.90;;;;;;4588964;30;114241;-80
2023/12/02 12:13:04;;;;;;;;;;;-2.00;74.00;;;;;;4603337;30;115266;-80
2023/12/02 12:15:31;;;;;;;;;;;-2.10;74.10;;;;;;4616583;30;114660;-80
2023/12/02 12:17:58;;;;;;;;;;;-2.30;74.30;;;;;;4604223;30;114268;-80
2023/12/02 12:20:26;;;;;;;;;;;-2.30;74.60;;;;;;4604324;30;114247;-80
2023/12/02 12:22:53;;;;;;;;;;;-2.20;74.60;;;;;;4588269;30;115462;-80
2023/12/02 12:25:21;;;;;;;;;;;-2.20;74.60;;;;;;4602098;30;115719;-78
2023/12/02 12:27:49;;;;;;;;;;;-2.20;74.50;;;;;;4588537;30;114315;-80
2023/12/02 12:30:16;;;;;;;;;;;-2.20;74.50;;;;;;4588654;30;114581;-80
2023/12/02 12:32:43;;;;;;;;;;;-2.20;74.60;;;;;;4603416;30;114896;-80
2023/12/02 12:35:11;;;;;;;;;;;-2.20;74.50;;;;;;4603802;30;115318;-78
2023/12/02 12:37:41;;;;;;;;;;;-2.10;74.40;;;;;;4616763;30;114153;-80
2023/12/02 12:40:09;;;;;;;;;;;-2.10;74.50;;;;;;4607188;30;114522;-80
2023/12/02 12:42:43;;;;;;;;;;;-2.10;74.40;;;;;;4603780;30;114879;-80
2023/12/02 12:45:10;;;;;;;;;;;-2.10;74.50;;;;;;4608480;30;114193;-78
2023/12/02 12:47:37;;;;;;;;;;;-1.90;74.60;;;;;;4616840;30;116672;-79
2023/12/02 12:50:05;;;;;;;;;;;-1.90;74.50;;;;;;4598386;30;114405;-81
2023/12/02 12:52:32;;;;;;;;;;;-1.80;74.50;;;;;;4593374;30;116707;-81
2023/12/02 12:54:59;;;;;;;;;;;-1.70;74.40;;;;;;4589682;30;118727;-81
2023/12/02 12:57:35;;;;;;;;;;;-1.70;74.30;;;;;;4604884;30;114466;-79
2023/12/02 13:00:03;;;;;;;;;;;-1.70;74.30;;;;;;4623292;30;114227;-79
2023/12/02 13:02:45;;;;;;;;;;;-1.70;74.00;;;;;;4576532;30;116472;-81
2023/12/02 13:05:14;;;;;;;;;;;-1.80;74.00;;;;;;4604166;30;115152;-80
2023/12/02 13:07:48;;;;;;;;;;;-1.80;74.20;;;;;;4605290;30;114107;-80
2023/12/02 13:10:19;;;;;;;;;;;-1.70;74.30;;;;;;4620886;30;114514;-80
2023/12/02 13:12:47;;;;;;;;;;;-1.70;74.10;;;;;;4604436;30;115013;-79
2023/12/02 13:15:16;;;;;;;;;;;-1.70;74.00;;;;;;4619549;30;115429;-81
2023/12/02 13:17:43;;;;;;;;;;;-1.90;73.80;;;;;;4619975;30;114539;-80
2023/12/02 13:20:10;;;;;;;;;;;-2.00;73.70;;;;;;4605243;30;114320;-81
2023/12/02 13:22:37;;;;;;;;;;;-2.00;73.80;;;;;;4619435;30;114924;-82
2023/12/02 13:25:21;;;;;;;;;;;-2.00;74.10;;;;;;4619277;30;114774;-81
2023/12/02 13:28:02;;;;;;;;;;;-2.00;74.10;;;;;;4620157;30;114232;-78
2023/12/02 13:30:29;;;;;;;;;;;-2.00;74.10;;;;;;4620335;30;114280;-80
2023/12/02 13:32:58;;;;;;;;;;;-2.00;74.20;;;;;;4619312;30;115540;-81
2023/12/02 13:35:30;;;;;;;;;;;-1.90;74.20;;;;;;4604443;30;114712;-80
2023/12/02 13:37:58;;;;;;;;;;;-1.90;74.10;;;;;;4620186;30;114714;-80
2023/12/02 13:40:37;;;;;;;;;;;-1.90;74.00;;;;;;4620718;30;114101;-81
2023/12/02 13:43:05;;;;;;;;;;;-1.80;73.80;;;;;;4590032;30;116291;-80
2023/12/02 13:45:32;;;;;;;;;;;-1.90;73.90;;;;;;4621187;30;114658;-79
2023/12/02 13:48:04;;;;;;;;;;;-1.80;74.00;;;;;;4620975;30;114671;-80
2023/12/02 13:50:35;;;;;;;;;;;-1.90;74.00;;;;;;4619892;30;114233;-78
2023/12/02 13:53:12;;;;;;;;;;;-1.90;74.10;;;;;;4604623;30;115054;-81
2023/12/02 13:55:45;;;;;;;;;;;-1.80;74.10;;;;;;4619097;30;115688;-79
2023/12/02 13:58:12;;;;;;;;;;;-1.80;74.10;;;;;;4619751;30;114262;-82
2023/12/02 14:00:54;;;;;;;;;;;-1.70;74.10;;;;;;4620283;30;114326;-79
2023/12/02 14:03:21;;;;;;;;;;;-1.70;74.20;;;;;;4618846;30;115358;-81
2023/12/02 14:05:53;;;;;;;;;;;-1.60;74.10;;;;;;4603546;30;114635;-80
2023/12/02 14:08:21;;;;;;;;;;;-1.60;74.00;;;;;;4619297;30;114353;-80
2023/12/02 14:10:49;;;;;;;;;;;-1.60;74.00;;;;;;4619773;30;114400;-79
2023/12/02 14:13:16;;;;;;;;;;;-1.70;73.70;;;;;;4618836;30;114887;-80
2023/12/02 14:16:06;;;;;;;;;;;-1.80;73.60;;;;;;4603535;30;115271;-79